Terminal Aerodrome Forecast
Issued by NWS

Home | Current Version | Previous Version | Text Only | Print | Product List | Glossary On
Versions: 1 2 3 4 5 6 7 8 9 10 11 12 13 14 15
000
FTAK31 PAFA 251724
TAFAGA
TAF
PAGA 251724Z 2518/2618 15005KT P6SM SCT015 BKN035 OVC045
     FM252100 18005KT P6SM BKN035 OVC050
     FM260300 18005KT P6SM SCT035 BKN050=

USA.gov is the U.S. government's official web portal to all federal, state and local government web resources and services.